sensor_id;sensor_type;location;lat;lon;timestamp;P1;durP1;ratioP1;P2;durP2;ratioP2
38162;SDS011;23977;53.078;18.248;2023-10-08T00:03:04;11.55;;;3.05;;
38162;SDS011;23977;53.078;18.248;2023-10-08T00:05:34;14.40;;;3.08;;
38162;SDS011;23977;53.078;18.248;2023-10-08T00:08:01;11.95;;;3.08;;
38162;SDS011;23977;53.078;18.248;2023-10-08T00:10:27;10.68;;;2.72;;
38162;SDS011;23977;53.078;18.248;2023-10-08T00:12:53;13.68;;;2.97;;
38162;SDS011;23977;53.078;18.248;2023-10-08T00:15:18;10.45;;;3.00;;
38162;SDS011;23977;53.078;18.248;2023-10-08T00:17:44;11.75;;;2.80;;
38162;SDS011;23977;53.078;18.248;2023-10-08T00:20:11;12.15;;;3.03;;
38162;SDS011;23977;53.078;18.248;2023-10-08T00:22:44;12.07;;;2.97;;
38162;SDS011;23977;53.078;18.248;2023-10-08T00:25:12;11.93;;;2.65;;
38162;SDS011;23977;53.078;18.248;2023-10-08T00:27:38;12.73;;;3.00;;
38162;SDS011;23977;53.078;18.248;2023-10-08T00:30:04;11.88;;;2.90;;
38162;SDS011;23977;53.078;18.248;2023-10-08T00:32:38;9.68;;;2.60;;
38162;SDS011;23977;53.078;18.248;2023-10-08T00:35:04;11.75;;;2.25;;
38162;SDS011;23977;53.078;18.248;2023-10-08T00:37:30;9.50;;;2.60;;
38162;SDS011;23977;53.078;18.248;2023-10-08T00:39:56;9.93;;;2.55;;
38162;SDS011;23977;53.078;18.248;2023-10-08T00:42:22;9.95;;;2.63;;
38162;SDS011;23977;53.078;18.248;2023-10-08T00:44:48;9.27;;;2.67;;
38162;SDS011;23977;53.078;18.248;2023-10-08T00:47:16;10.30;;;2.53;;
38162;SDS011;23977;53.078;18.248;2023-10-08T00:49:42;8.50;;;2.28;;
38162;SDS011;23977;53.078;18.248;2023-10-08T00:52:08;10.63;;;2.55;;
38162;SDS011;23977;53.078;18.248;2023-10-08T00:54:36;11.00;;;2.70;;
38162;SDS011;23977;53.078;18.248;2023-10-08T00:57:21;8.00;;;2.20;;
38162;SDS011;23977;53.078;18.248;2023-10-08T00:59:49;8.40;;;2.58;;
38162;SDS011;23977;53.078;18.248;2023-10-08T01:02:26;10.52;;;2.30;;
38162;SDS011;23977;53.078;18.248;2023-10-08T01:04:55;8.10;;;2.53;;
38162;SDS011;23977;53.078;18.248;2023-10-08T01:07:21;10.13;;;2.17;;
38162;SDS011;23977;53.078;18.248;2023-10-08T01:09:49;8.35;;;2.17;;
38162;SDS011;23977;53.078;18.248;2023-10-08T01:12:17;7.45;;;1.98;;
38162;SDS011;23977;53.078;18.248;2023-10-08T01:14:53;9.50;;;2.20;;
38162;SDS011;23977;53.078;18.248;2023-10-08T01:17:23;6.03;;;1.70;;
38162;SDS011;23977;53.078;18.248;2023-10-08T01:19:51;7.35;;;1.85;;
38162;SDS011;23977;53.078;18.248;2023-10-08T01:22:22;6.55;;;1.70;;
38162;SDS011;23977;53.078;18.248;2023-10-08T01:24:48;5.95;;;1.70;;
38162;SDS011;23977;53.078;18.248;2023-10-08T01:27:18;5.38;;;1.80;;
38162;SDS011;23977;53.078;18.248;2023-10-08T01:29:50;6.32;;;1.67;;
38162;SDS011;23977;53.078;18.248;2023-10-08T01:32:17;5.40;;;1.58;;
38162;SDS011;23977;53.078;18.248;2023-10-08T01:34:44;4.88;;;1.50;;
38162;SDS011;23977;53.078;18.248;2023-10-08T01:37:14;6.82;;;1.50;;
38162;SDS011;23977;53.078;18.248;2023-10-08T01:39:46;5.95;;;1.70;;
38162;SDS011;23977;53.078;18.248;2023-10-08T01:42:15;4.63;;;1.50;;
38162;SDS011;23977;53.078;18.248;2023-10-08T01:44:47;6.78;;;1.50;;
38162;SDS011;23977;53.078;18.248;2023-10-08T01:47:14;6.70;;;1.67;;
38162;SDS011;23977;53.078;18.248;2023-10-08T01:49:41;4.55;;;1.42;;
38162;SDS011;23977;53.078;18.248;2023-10-08T01:52:10;5.03;;;1.30;;
38162;SDS011;23977;53.078;18.248;2023-10-08T01:54:55;4.50;;;1.38;;
38162;SDS011;23977;53.078;18.248;2023-10-08T01:57:21;3.28;;;1.38;;
38162;SDS011;23977;53.078;18.248;2023-10-08T01:59:47;5.55;;;1.60;;
38162;SDS011;23977;53.078;18.248;2023-10-08T02:02:12;5.32;;;1.27;;
38162;SDS011;23977;53.078;18.248;2023-10-08T02:04:41;4.88;;;1.20;;
38162;SDS011;23977;53.078;18.248;2023-10-08T02:07:06;3.13;;;1.20;;
38162;SDS011;23977;53.078;18.248;2023-10-08T02:09:41;4.72;;;1.05;;
38162;SDS011;23977;53.078;18.248;2023-10-08T02:12:07;5.57;;;1.33;;
38162;SDS011;23977;53.078;18.248;2023-10-08T02:14:33;3.38;;;0.90;;
38162;SDS011;23977;53.078;18.248;2023-10-08T02:17:01;3.50;;;0.93;;
38162;SDS011;23977;53.078;18.248;2023-10-08T02:19:32;2.20;;;0.90;;
38162;SDS011;23977;53.078;18.248;2023-10-08T02:22:00;2.50;;;0.80;;
38162;SDS011;23977;53.078;18.248;2023-10-08T02:24:25;3.17;;;0.90;;
38162;SDS011;23977;53.078;18.248;2023-10-08T02:26:51;1.70;;;0.65;;
38162;SDS011;23977;53.078;18.248;2023-10-08T02:29:20;2.40;;;0.90;;
38162;SDS011;23977;53.078;18.248;2023-10-08T02:31:47;2.70;;;0.70;;
38162;SDS011;23977;53.078;18.248;2023-10-08T02:34:13;2.30;;;0.80;;
38162;SDS011;23977;53.078;18.248;2023-10-08T02:36:39;2.72;;;0.70;;
38162;SDS011;23977;53.078;18.248;2023-10-08T02:39:06;2.97;;;0.70;;
38162;SDS011;23977;53.078;18.248;2023-10-08T02:41:42;3.38;;;0.95;;
38162;SDS011;23977;53.078;18.248;2023-10-08T02:44:15;2.00;;;0.77;;
38162;SDS011;23977;53.078;18.248;2023-10-08T02:46:42;2.72;;;0.80;;
38162;SDS011;23977;53.078;18.248;2023-10-08T02:49:16;1.50;;;0.57;;
38162;SDS011;23977;53.078;18.248;2023-10-08T02:51:47;2.85;;;0.80;;
38162;SDS011;23977;53.078;18.248;2023-10-08T02:54:16;1.60;;;0.57;;
38162;SDS011;23977;53.078;18.248;2023-10-08T02:57:03;2.92;;;0.60;;
38162;SDS011;23977;53.078;18.248;2023-10-08T02:59:30;2.45;;;0.52;;
38162;SDS011;23977;53.078;18.248;2023-10-08T03:02:09;2.72;;;0.70;;
38162;SDS011;23977;53.078;18.248;2023-10-08T03:04:40;1.98;;;0.60;;
38162;SDS011;23977;53.078;18.248;2023-10-08T03:07:10;1.33;;;0.50;;
38162;SDS011;23977;53.078;18.248;2023-10-08T03:09:47;1.42;;;0.60;;
38162;SDS011;23977;53.078;18.248;2023-10-08T03:12:15;1.50;;;0.50;;
38162;SDS011;23977;53.078;18.248;2023-10-08T03:14:43;1.63;;;0.50;;
38162;SDS011;23977;53.078;18.248;2023-10-08T03:17:29;2.17;;;0.50;;
38162;SDS011;23977;53.078;18.248;2023-10-08T03:19:55;1.13;;;0.50;;
38162;SDS011;23977;53.078;18.248;2023-10-08T03:22:43;2.88;;;0.63;;
38162;SDS011;23977;53.078;18.248;2023-10-08T03:25:12;2.03;;;0.40;;
38162;SDS011;23977;53.078;18.248;2023-10-08T03:27:45;2.10;;;0.60;;
38162;SDS011;23977;53.078;18.248;2023-10-08T03:30:10;2.25;;;0.52;;
38162;SDS011;23977;53.078;18.248;2023-10-08T03:32:42;1.40;;;0.50;;
38162;SDS011;23977;53.078;18.248;2023-10-08T03:35:10;1.25;;;0.50;;
38162;SDS011;23977;53.078;18.248;2023-10-08T03:37:36;2.50;;;0.60;;
38162;SDS011;23977;53.078;18.248;2023-10-08T03:40:07;1.60;;;0.50;;
38162;SDS011;23977;53.078;18.248;2023-10-08T03:42:52;1.83;;;0.60;;
38162;SDS011;23977;53.078;18.248;2023-10-08T03:45:21;2.25;;;0.60;;
38162;SDS011;23977;53.078;18.248;2023-10-08T03:48:06;2.33;;;0.50;;
38162;SDS011;23977;53.078;18.248;2023-10-08T03:50:36;2.35;;;0.60;;
38162;SDS011;23977;53.078;18.248;2023-10-08T03:53:08;2.10;;;0.60;;
38162;SDS011;23977;53.078;18.248;2023-10-08T03:55:38;1.27;;;0.60;;
38162;SDS011;23977;53.078;18.248;2023-10-08T03:58:08;1.88;;;0.52;;
38162;SDS011;23977;53.078;18.248;2023-10-08T04:00:45;1.67;;;0.40;;
38162;SDS011;23977;53.078;18.248;2023-10-08T04:03:11;1.80;;;0.50;;
38162;SDS011;23977;53.078;18.248;2023-10-08T04:05:38;1.75;;;0.60;;
38162;SDS011;23977;53.078;18.248;2023-10-08T04:08:24;1.77;;;0.60;;
38162;SDS011;23977;53.078;18.248;2023-10-08T04:11:10;2.63;;;0.50;;
38162;SDS011;23977;53.078;18.248;2023-10-08T04:14:01;2.85;;;0.47;;
38162;SDS011;23977;53.078;18.248;2023-10-08T04:16:28;2.40;;;0.50;;
38162;SDS011;23977;53.078;18.248;2023-10-08T04:18:55;2.40;;;0.52;;
38162;SDS011;23977;53.078;18.248;2023-10-08T04:21:22;2.08;;;0.47;;
38162;SDS011;23977;53.078;18.248;2023-10-08T04:23:52;1.23;;;0.40;;
38162;SDS011;23977;53.078;18.248;2023-10-08T04:26:19;1.20;;;0.40;;
38162;SDS011;23977;53.078;18.248;2023-10-08T04:28:55;1.55;;;0.50;;
38162;SDS011;23977;53.078;18.248;2023-10-08T04:31:31;0.82;;;0.35;;
38162;SDS011;23977;53.078;18.248;2023-10-08T04:34:04;1.42;;;0.50;;
38162;SDS011;23977;53.078;18.248;2023-10-08T04:36:43;1.48;;;0.40;;
38162;SDS011;23977;53.078;18.248;2023-10-08T04:39:12;2.80;;;0.60;;
38162;SDS011;23977;53.078;18.248;2023-10-08T04:41:42;1.88;;;0.50;;
38162;SDS011;23977;53.078;18.248;2023-10-08T04:44:11;1.10;;;0.47;;
38162;SDS011;23977;53.078;18.248;2023-10-08T04:46:41;1.45;;;0.45;;
38162;SDS011;23977;53.078;18.248;2023-10-08T04:49:15;1.80;;;0.60;;
38162;SDS011;23977;53.078;18.248;2023-10-08T04:51:57;1.90;;;0.50;;
38162;SDS011;23977;53.078;18.248;2023-10-08T04:54:25;3.17;;;0.45;;
38162;SDS011;23977;53.078;18.248;2023-10-08T04:56:59;2.10;;;0.60;;
38162;SDS011;23977;53.078;18.248;2023-10-08T04:59:29;2.22;;;0.85;;
38162;SDS011;23977;53.078;18.248;2023-10-08T05:01:59;3.10;;;1.00;;
38162;SDS011;23977;53.078;18.248;2023-10-08T05:04:46;2.38;;;0.80;;
38162;SDS011;23977;53.078;18.248;2023-10-08T05:07:22;2.30;;;0.60;;
38162;SDS011;23977;53.078;18.248;2023-10-08T05:10:07;3.03;;;0.88;;
38162;SDS011;23977;53.078;18.248;2023-10-08T05:12:33;2.50;;;0.70;;
38162;SDS011;23977;53.078;18.248;2023-10-08T05:15:00;1.50;;;0.63;;
38162;SDS011;23977;53.078;18.248;2023-10-08T05:17:45;2.70;;;0.57;;
38162;SDS011;23977;53.078;18.248;2023-10-08T05:20:18;1.27;;;0.60;;
38162;SDS011;23977;53.078;18.248;2023-10-08T05:23:10;1.52;;;0.70;;
38162;SDS011;23977;53.078;18.248;2023-10-08T05:26:10;2.42;;;0.63;;
38162;SDS011;23977;53.078;18.248;2023-10-08T05:28:46;2.92;;;0.50;;
38162;SDS011;23977;53.078;18.248;2023-10-08T05:31:29;1.15;;;0.50;;
38162;SDS011;23977;53.078;18.248;2023-10-08T05:34:10;2.47;;;0.60;;
38162;SDS011;23977;53.078;18.248;2023-10-08T05:36:58;2.90;;;0.52;;
38162;SDS011;23977;53.078;18.248;2023-10-08T05:39:30;2.42;;;0.60;;
38162;SDS011;23977;53.078;18.248;2023-10-08T05:42:08;2.20;;;0.60;;
38162;SDS011;23977;53.078;18.248;2023-10-08T05:44:45;1.73;;;0.65;;
38162;SDS011;23977;53.078;18.248;2023-10-08T05:47:16;1.42;;;0.50;;
38162;SDS011;23977;53.078;18.248;2023-10-08T05:49:57;1.42;;;0.50;;
38162;SDS011;23977;53.078;18.248;2023-10-08T05:52:46;1.38;;;0.43;;
38162;SDS011;23977;53.078;18.248;2023-10-08T05:55:28;1.85;;;0.57;;
38162;SDS011;23977;53.078;18.248;2023-10-08T05:58:06;3.97;;;0.60;;
38162;SDS011;23977;53.078;18.248;2023-10-08T06:00:46;2.17;;;0.60;;
38162;SDS011;23977;53.078;18.248;2023-10-08T06:03:15;3.15;;;0.47;;
38162;SDS011;23977;53.078;18.248;2023-10-08T06:06:06;1.98;;;0.50;;
38162;SDS011;23977;53.078;18.248;2023-10-08T06:08:39;2.08;;;0.60;;
38162;SDS011;23977;53.078;18.248;2023-10-08T07:24:23;1.80;;;0.40;;
38162;SDS011;23977;53.078;18.248;2023-10-08T07:27:20;1.35;;;0.50;;
38162;SDS011;23977;53.078;18.248;2023-10-08T07:33:12;1.27;;;0.60;;
38162;SDS011;23977;53.078;18.248;2023-10-08T07:48:13;1.45;;;0.63;;
38162;SDS011;23977;53.078;18.248;2023-10-08T07:51:07;1.38;;;0.60;;
38162;SDS011;23977;53.078;18.248;2023-10-08T07:53:49;1.50;;;0.52;;
38162;SDS011;23977;53.078;18.248;2023-10-08T07:59:59;1.65;;;0.50;;
38162;SDS011;23977;53.078;18.248;2023-10-08T08:06:50;1.70;;;0.60;;
38162;SDS011;23977;53.078;18.248;2023-10-08T08:13:04;1.55;;;0.50;;
38162;SDS011;23977;53.078;18.248;2023-10-08T08:16:10;1.10;;;0.40;;
38162;SDS011;23977;53.078;18.248;2023-10-08T08:24:58;1.30;;;0.50;;
38162;SDS011;23977;53.078;18.248;2023-10-08T08:27:41;1.42;;;0.50;;
38162;SDS011;23977;53.078;18.248;2023-10-08T08:32:50;1.25;;;0.50;;
38162;SDS011;23977;53.078;18.248;2023-10-08T08:53:37;1.80;;;0.65;;
38162;SDS011;23977;53.078;18.248;2023-10-08T09:01:35;1.35;;;0.60;;
38162;SDS011;23977;53.078;18.248;2023-10-08T09:04:02;1.23;;;0.50;;
38162;SDS011;23977;53.078;18.248;2023-10-08T09:06:34;1.98;;;0.50;;
38162;SDS011;23977;53.078;18.248;2023-10-08T09:15:04;1.85;;;0.68;;
38162;SDS011;23977;53.078;18.248;2023-10-08T09:22:37;1.33;;;0.50;;
38162;SDS011;23977;53.078;18.248;2023-10-08T09:25:45;2.40;;;0.60;;
38162;SDS011;23977;53.078;18.248;2023-10-08T09:33:28;1.05;;;0.50;;
38162;SDS011;23977;53.078;18.248;2023-10-08T09:51:25;2.78;;;0.77;;
38162;SDS011;23977;53.078;18.248;2023-10-08T09:58:28;1.65;;;0.52;;
38162;SDS011;23977;53.078;18.248;2023-10-08T10:01:01;1.80;;;0.45;;
38162;SDS011;23977;53.078;18.248;2023-10-08T16:59:47;2.60;;;1.00;;
38162;SDS011;23977;53.078;18.248;2023-10-08T17:18:19;3.42;;;1.30;;
38162;SDS011;23977;53.078;18.248;2023-10-08T17:21:22;4.00;;;1.20;;
38162;SDS011;23977;53.078;18.248;2023-10-08T17:24:21;2.95;;;1.20;;
38162;SDS011;23977;53.078;18.248;2023-10-08T17:27:33;3.17;;;1.20;;
38162;SDS011;23977;53.078;18.248;2023-10-08T17:30:28;3.30;;;1.17;;
38162;SDS011;23977;53.078;18.248;2023-10-08T17:33:15;2.70;;;1.02;;
